Time;durP1;ratioP1;P1;durP2;ratioP2;P2;SDS_P1;SDS_P2;PMS_P1;PMS_P2;Temp;Humidity;BMP_temperature;BMP_pressure;BME280_temperature;BME280_humidity;BME280_pressure;Samples;Min_cycle;Max_cycle;Signal;HPM_P1;HPM_P2
2021/07/16 00:02:06;;;;;;;40.38;17.17;;;;;;;23.38;61.53;101224.39;1827528;78;21174;-76
2021/07/16 00:04:38;;;;;;;37.53;15.58;;;;;;;23.33;61.73;101226.81;1827318;78;21395;-68
2021/07/16 00:07:11;;;;;;;35.73;16.57;;;;;;;23.33;61.95;101235.88;1827386;78;21343;-68
2021/07/16 00:09:43;;;;;;;46.40;18.43;;;;;;;23.32;62.30;101234.22;1827511;78;21498;-70
2021/07/16 00:12:16;;;;;;;34.73;16.80;;;;;;;23.31;62.95;101227.73;1827720;78;21332;-69
2021/07/16 00:14:49;;;;;;;37.42;17.73;;;;;;;23.32;63.23;101219.48;1827337;78;21170;-70
2021/07/16 00:17:22;;;;;;;52.65;17.75;;;;;;;23.36;63.50;101221.06;1827372;78;21292;-70
2021/07/16 00:19:55;;;;;;;55.35;21.52;;;;;;;23.42;63.72;101219.13;1827557;78;21308;-69
2021/07/16 00:22:29;;;;;;;38.27;22.43;;;;;;;23.48;64.24;101226.30;1827626;78;21169;-69
2021/07/16 00:25:03;;;;;;;48.02;19.98;;;;;;;23.51;66.33;101221.39;1827308;78;21170;-68
2021/07/16 00:27:36;;;;;;;52.62;20.72;;;;;;;23.49;68.06;101220.06;1827232;78;21359;-69
2021/07/16 00:30:10;;;;;;;48.05;17.17;;;;;;;23.52;69.26;101215.16;1827571;78;21193;-69
2021/07/16 00:32:43;;;;;;;49.18;19.20;;;;;;;23.59;70.20;101214.88;1806805;78;21734;-70
2021/07/16 00:35:16;;;;;;;54.13;22.25;;;;;;;23.71;70.35;101217.06;1827478;78;21174;-70
2021/07/16 00:37:49;;;;;;;44.70;20.72;;;;;;;23.82;70.17;101212.68;1827101;77;21193;-70
2021/07/16 00:40:22;;;;;;;55.92;19.50;;;;;;;23.89;70.24;101217.32;1827598;77;21276;-69
2021/07/16 00:42:55;;;;;;;40.73;16.12;;;;;;;23.93;70.90;101216.87;1827208;78;21311;-79
2021/07/16 00:45:28;;;;;;;43.90;18.62;;;;;;;23.95;71.18;101220.23;1827376;78;21694;-69
2021/07/16 00:48:05;;;;;;;38.88;20.25;;;;;;;24.01;72.00;101218.88;1827489;78;21221;-69
2021/07/16 00:50:41;;;;;;;39.90;19.12;;;;;;;24.02;72.74;101224.80;1827241;78;21319;-69
2021/07/16 00:53:19;;;;;;;47.93;19.85;;;;;;;24.00;73.21;101225.70;1827303;78;21300;-69
2021/07/16 00:55:49;;;;;;;34.78;18.45;;;;;;;23.99;73.32;101226.87;1827279;78;21166;-69
2021/07/16 00:58:21;;;;;;;44.33;18.17;;;;;;;24.02;73.38;101225.62;1827466;78;21190;-70
2021/07/16 01:00:54;;;;;;;48.00;19.15;;;;;;;24.07;72.86;101221.79;1806755;78;21309;-69
2021/07/16 01:03:27;;;;;;;35.92;20.30;;;;;;;24.13;72.72;101221.25;1827500;78;21209;-71
2021/07/16 01:06:02;;;;;;;42.10;21.70;;;;;;;24.20;72.45;101217.31;1827413;77;21300;-69
2021/07/16 01:08:34;;;;;;;39.78;20.17;;;;;;;24.25;72.14;101224.84;1827378;78;21165;-69
2021/07/16 01:11:07;;;;;;;49.53;19.27;;;;;;;24.28;71.93;101219.87;1827606;78;21162;-69
2021/07/16 01:13:40;;;;;;;32.93;20.72;;;;;;;24.29;71.72;101217.28;1827438;77;21193;-70
2021/07/16 01:16:14;;;;;;;42.15;21.75;;;;;;;24.31;71.76;101222.06;1827292;78;21705;-70
2021/07/16 01:18:49;;;;;;;48.68;21.02;;;;;;;24.27;71.84;101220.45;1827760;78;21423;-70
2021/07/16 01:21:23;;;;;;;39.40;18.40;;;;;;;24.18;72.06;101220.23;1827233;78;21870;-69
2021/07/16 01:23:56;;;;;;;39.30;17.42;;;;;;;24.10;72.43;101223.94;1827469;78;21754;-70
2021/07/16 01:26:30;;;;;;;41.73;16.17;;;;;;;23.99;72.94;101225.46;1827454;78;21216;-70
2021/07/16 01:29:03;;;;;;;37.95;16.25;;;;;;;23.87;73.36;101226.16;1827170;78;21367;-69
2021/07/16 01:31:37;;;;;;;43.15;16.23;;;;;;;23.81;73.79;101230.88;1827332;78;21726;-69
2021/07/16 01:34:10;;;;;;;31.48;13.90;;;;;;;23.73;74.05;101231.16;1827288;78;21308;-69
2021/07/16 01:36:42;;;;;;;35.50;13.20;;;;;;;23.71;74.26;101231.25;1829182;77;21158;-69
2021/07/16 01:39:15;;;;;;;33.75;12.20;;;;;;;23.67;74.52;101231.08;1851151;77;21296;-69
2021/07/16 01:41:48;;;;;;;32.58;12.45;;;;;;;23.62;74.77;101229.83;1851187;77;21823;-70
2021/07/16 01:44:21;;;;;;;25.05;12.20;;;;;;;23.56;74.94;101221.81;1851081;77;21304;-69
2021/07/16 01:46:54;;;;;;;28.32;12.15;;;;;;;23.52;74.83;101220.83;1851146;77;21299;-69
2021/07/16 01:49:27;;;;;;;38.78;11.55;;;;;;;23.48;74.69;101218.39;1851079;77;21300;-70
2021/07/16 01:52:02;;;;;;;41.30;11.70;;;;;;;23.47;74.57;101223.83;1852516;77;21340;-69
2021/07/16 01:54:37;;;;;;;44.42;11.35;;;;;;;23.46;74.50;101225.00;1850995;77;21170;-69
2021/07/16 01:57:09;;;;;;;36.10;10.60;;;;;;;23.44;74.47;101225.32;1851464;77;21850;-68
2021/07/16 01:59:42;;;;;;;32.58;11.60;;;;;;;23.46;74.38;101222.98;1851122;77;21929;-69
2021/07/16 02:02:15;;;;;;;;;;;;;;;23.44;74.42;101224.47;1853706;77;21830;-68
2021/07/16 02:04:49;;;;;;;29.52;9.35;;;;;;;23.39;74.49;101226.05;1851275;77;20182;-71
2021/07/16 02:07:23;;;;;;;28.83;8.98;;;;;;;23.36;74.57;101221.88;1851480;77;21387;-71
2021/07/16 02:09:57;;;;;;;33.80;8.68;;;;;;;23.32;74.47;101222.31;1851217;77;21166;-71
2021/07/16 02:12:29;;;;;;;30.15;8.63;;;;;;;23.32;74.03;101225.72;1851309;77;21162;-70
2021/07/16 02:15:12;;;;;;;25.32;9.90;;;;;;;23.32;73.63;101221.47;1851163;77;21177;-71
2021/07/16 02:17:46;;;;;;;31.85;8.85;;;;;;;23.33;73.31;101225.97;1851167;77;21324;-71
2021/07/16 02:20:32;;;;;;;25.23;7.97;;;;;;;23.31;73.09;101224.05;1851026;77;21205;-70
2021/07/16 02:23:09;;;;;;;35.98;9.48;;;;;;;23.32;72.92;101232.23;1850895;77;21142;-72
2021/07/16 02:25:44;;;;;;;30.23;8.90;;;;;;;23.37;72.55;101236.90;1848234;77;21923;-76
2021/07/16 02:28:22;;;;;;;28.05;9.33;;;;;;;23.38;72.20;101230.91;1856253;76;21371;-74
2021/07/16 02:30:55;;;;;;;29.45;7.90;;;;;;;23.31;72.10;101228.30;1887738;76;21381;-70
2021/07/16 02:33:28;;;;;;;37.10;8.80;;;;;;;23.26;72.08;101238.38;1817892;79;21347;-71
2021/07/16 02:36:02;;;;;;;35.25;9.25;;;;;;;23.19;72.02;101240.31;1853568;77;21291;-69
2021/07/16 02:38:35;;;;;;;33.73;9.63;;;;;;;23.13;72.02;101238.77;1806117;79;21321;-75
2021/07/16 02:41:08;;;;;;;30.75;9.38;;;;;;;23.10;71.95;101236.58;1845047;78;21302;-68
2021/07/16 02:43:41;;;;;;;29.72;8.43;;;;;;;23.08;71.82;101234.67;1845121;77;21675;-75
2021/07/16 02:46:14;;;;;;;38.67;8.80;;;;;;;23.09;71.45;101235.48;1799974;80;21364;-71
2021/07/16 02:48:47;;;;;;;42.23;9.03;;;;;;;23.10;71.06;101232.33;1844985;78;21200;-68
2021/07/16 02:51:21;;;;;;;38.33;9.50;;;;;;;23.11;70.92;101233.98;1845160;78;21149;-70
2021/07/16 02:53:53;;;;;;;31.87;8.85;;;;;;;23.12;70.88;101228.60;1799970;80;22188;-71
2021/07/16 02:56:26;;;;;;;41.92;8.75;;;;;;;23.13;70.96;101220.34;1845961;78;21812;-72
2021/07/16 02:58:58;;;;;;;37.45;9.23;;;;;;;23.14;71.24;101229.66;1846540;76;21797;-69
2021/07/16 03:01:32;;;;;;;40.25;9.28;;;;;;;23.16;71.41;101233.02;1803690;78;21225;-68
2021/07/16 03:04:06;;;;;;;33.67;11.00;;;;;;;23.19;71.32;101232.38;1845994;77;21744;-69
2021/07/16 03:06:38;;;;;;;45.83;9.65;;;;;;;23.22;71.19;101232.55;1842828;78;21801;-69
2021/07/16 03:09:12;;;;;;;32.75;7.92;;;;;;;23.26;70.88;101230.73;1868842;76;21163;-78
2021/07/16 03:11:46;;;;;;;29.45;8.85;;;;;;;23.37;69.86;101227.83;1877148;76;21731;-69
2021/07/16 03:14:19;;;;;;;32.17;9.63;;;;;;;23.37;69.86;101227.83;1877342;76;21162;-78
2021/07/16 03:16:52;;;;;;;28.83;9.45;;;;;;;23.46;69.59;101226.41;1876658;76;21316;-69
2021/07/16 03:19:29;;;;;;;43.08;10.35;;;;;;;23.54;69.24;101234.89;1842322;78;21332;-73
2021/07/16 03:22:01;;;;;;;24.60;8.50;;;;;;;23.62;68.82;101240.33;1842778;78;21162;-82
2021/07/16 03:24:35;;;;;;;31.73;8.88;;;;;;;23.68;68.31;101238.98;1842515;78;21345;-81
2021/07/16 03:27:08;;;;;;;31.42;8.38;;;;;;;23.73;68.05;101236.84;1842569;78;21356;-69
2021/07/16 03:29:40;;;;;;;33.85;8.50;;;;;;;23.79;67.75;101222.73;1848885;76;21280;-74
2021/07/16 03:32:13;;;;;;;24.35;8.75;;;;;;;23.87;67.03;101235.21;1842925;78;21308;-69
2021/07/16 03:34:45;;;;;;;18.47;8.50;;;;;;;23.93;66.25;101236.73;1843149;78;21170;-68
2021/07/16 03:37:19;;;;;;;26.50;8.85;;;;;;;24.00;65.83;101228.54;1875815;76;21725;-69
2021/07/16 03:39:51;;;;;;;19.67;8.15;;;;;;;24.07;65.59;101226.05;1869162;76;21987;-69
2021/07/16 03:42:24;;;;;;;21.48;8.25;;;;;;;24.13;64.28;101233.22;1839117;77;21289;-69
2021/07/16 03:44:58;;;;;;;35.92;9.20;;;;;;;24.17;64.09;101230.77;1846256;77;21160;-70
2021/07/16 03:47:30;;;;;;;;;;;;;;;24.22;63.97;101234.02;1840464;77;21300;-71
2021/07/16 03:50:02;;;;;;;29.87;8.43;;;;;;;24.26;63.99;101230.75;1853727;77;20281;-68
2021/07/16 03:52:36;;;;;;;37.10;9.55;;;;;;;24.29;63.91;101230.91;1838766;77;21391;-70
2021/07/16 03:55:11;;;;;;;35.55;8.15;;;;;;;24.33;63.21;101225.38;1861030;77;21359;-77
2021/07/16 03:57:48;;;;;;;40.08;11.10;;;;;;;24.38;62.76;101229.46;1861001;76;21305;-76
2021/07/16 04:00:27;;;;;;;56.40;9.43;;;;;;;24.43;62.29;101220.16;1860890;77;21245;-69
2021/07/16 04:02:58;;;;;;;35.80;8.18;;;;;;;24.49;61.74;101217.95;1860889;77;21706;-69
2021/07/16 04:05:32;;;;;;;41.45;8.50;;;;;;;24.56;61.66;101219.70;1831058;77;21762;-67
2021/07/16 04:08:05;;;;;;;36.03;10.10;;;;;;;24.62;61.77;101224.05;1827277;78;21359;-70
2021/07/16 04:10:39;;;;;;;33.98;10.10;;;;;;;24.67;61.85;101224.68;1827318;78;21169;-69
2021/07/16 04:13:12;;;;;;;;;;;;;;;24.73;61.53;101223.31;1830059;77;21351;-70
2021/07/16 04:15:45;;;;;;;44.60;9.63;;;;;;;24.81;61.34;101227.30;1835791;77;20588;-69
2021/07/16 04:18:17;;;;;;;;;;;;;;;24.92;60.66;101225.73;1830086;77;21158;-74
2021/07/16 04:20:50;;;;;;;29.45;9.18;;;;;;;25.06;60.28;101223.47;1827348;78;20175;-69
2021/07/16 04:23:22;;;;;;;35.83;10.47;;;;;;;25.18;59.78;101222.95;1827546;78;21952;-68
2021/07/16 04:25:54;;;;;;;47.90;9.78;;;;;;;25.31;59.38;101228.17;1827426;78;21304;-69
2021/07/16 04:28:27;;;;;;;31.40;8.60;;;;;;;25.41;59.62;101229.19;1835762;76;21150;-69
2021/07/16 04:31:00;;;;;;;;;;;;;;;25.54;59.30;101225.23;1861454;76;21178;-70
2021/07/16 04:33:32;;;;;;;34.83;8.83;;;;;;;25.77;59.10;101225.09;1858012;77;20600;-68
2021/07/16 04:36:05;;;;;;;38.73;9.23;;;;;;;26.09;58.55;101228.59;1824556;77;21308;-69
2021/07/16 04:38:37;;;;;;;39.78;8.88;;;;;;;26.44;58.13;101235.54;1827470;78;21169;-68
2021/07/16 04:41:10;;;;;;;27.52;9.13;;;;;;;26.86;57.89;101230.76;1849159;76;21311;-68
2021/07/16 04:43:43;;;;;;;33.48;7.15;;;;;;;27.34;57.01;101230.75;1862632;76;21323;-69
2021/07/16 04:46:16;;;;;;;28.77;7.22;;;;;;;27.88;55.22;101224.91;1879202;76;21307;-73
2021/07/16 04:48:55;;;;;;;27.35;6.67;;;;;;;28.29;54.30;101221.57;1872508;75;21337;-67
2021/07/16 04:51:29;;;;;;;22.25;8.00;;;;;;;28.62;53.83;101224.35;1830812;78;21432;-69
2021/07/16 04:54:03;;;;;;;24.65;5.90;;;;;;;29.05;51.75;101221.39;1829813;78;21147;-68
2021/07/16 04:56:36;;;;;;;30.82;6.05;;;;;;;29.51;50.10;101219.02;1833669;78;21303;-67
2021/07/16 04:59:09;;;;;;;21.93;5.62;;;;;;;29.90;48.77;101219.91;1819656;78;21281;-68
2021/07/16 05:01:42;;;;;;;32.80;6.17;;;;;;;30.21;46.89;101217.70;1819920;78;21161;-68
2021/07/16 05:04:16;;;;;;;22.58;5.55;;;;;;;30.59;46.75;101217.63;1824841;78;21179;-66
2021/07/16 05:06:48;;;;;;;22.40;5.75;;;;;;;30.98;45.76;101220.58;1832493;78;21410;-67
2021/07/16 05:09:23;;;;;;;21.30;5.00;;;;;;;31.38;45.51;101220.84;1812168;78;21219;-66
2021/07/16 05:11:56;;;;;;;12.23;4.97;;;;;;;31.80;45.29;101217.16;1812189;78;21664;-76
2021/07/16 05:14:29;;;;;;;22.13;6.00;;;;;;;32.20;42.26;101217.86;1817403;78;21740;-66
2021/07/16 05:17:02;;;;;;;18.62;5.37;;;;;;;32.53;41.83;101225.86;1814715;78;21314;-66
2021/07/16 05:19:35;;;;;;;45.38;7.47;;;;;;;32.85;41.53;101221.25;1812584;78;21698;-72
2021/07/16 05:22:08;;;;;;;30.35;5.42;;;;;;;33.04;41.35;101218.11;1827487;78;21830;-74
2021/07/16 05:24:40;;;;;;;20.15;4.60;;;;;;;33.28;40.61;101220.98;1833012;78;21769;-69
2021/07/16 05:27:12;;;;;;;32.55;7.30;;;;;;;33.42;40.69;101223.98;1816114;78;21153;-70
2021/07/16 05:29:47;;;;;;;16.93;4.78;;;;;;;33.59;40.97;101216.03;1813267;78;21310;-69
2021/07/16 05:32:20;;;;;;;30.35;5.62;;;;;;;33.90;40.04;101222.59;1819381;78;21808;-68
2021/07/16 05:34:52;;;;;;;23.75;5.40;;;;;;;34.15;40.23;101219.22;1814467;78;21674;-70
2021/07/16 05:37:24;;;;;;;;;;;;;;;34.42;39.54;101223.43;1830807;78;21690;-70
2021/07/16 05:39:57;;;;;;;43.15;7.22;;;;;;;34.57;38.72;101227.98;1817644;78;20288;-70
2021/07/16 05:42:30;;;;;;;17.57;5.92;;;;;;;34.70;38.21;101225.74;1815715;78;21180;-77
2021/07/16 05:45:06;;;;;;;33.67;6.55;;;;;;;34.78;37.53;101220.20;1807246;78;21172;-71
2021/07/16 05:47:39;;;;;;;28.60;6.17;;;;;;;34.84;38.31;101221.44;1811872;78;21821;-72
2021/07/16 05:50:12;;;;;;;40.35;7.08;;;;;;;34.96;37.54;101221.67;1837310;78;21823;-71
2021/07/16 05:52:44;;;;;;;24.05;5.35;;;;;;;35.07;38.06;101220.41;1831651;77;21141;-76
2021/07/16 05:55:18;;;;;;;23.75;6.80;;;;;;;35.25;38.07;101221.25;1828774;76;21340;-69
2021/07/16 05:57:51;;;;;;;20.40;5.45;;;;;;;35.26;37.87;101218.56;1842424;78;21216;-70
2021/07/16 06:00:23;;;;;;;15.90;5.35;;;;;;;35.28;37.11;101219.00;1856931;77;21845;-71
2021/07/16 06:02:56;;;;;;;18.77;5.60;;;;;;;35.39;37.44;101209.66;1844366;77;21156;-76
2021/07/16 06:05:31;;;;;;;20.97;5.95;;;;;;;35.69;37.83;101217.25;1867292;76;21156;-79
2021/07/16 06:08:05;;;;;;;29.35;5.75;;;;;;;35.90;37.94;101209.13;1809656;78;21217;-71
2021/07/16 06:10:38;;;;;;;23.80;5.55;;;;;;;36.14;37.59;101207.56;1814770;78;21151;-71
2021/07/16 06:13:11;;;;;;;20.35;5.40;;;;;;;36.26;38.24;101212.91;1807511;78;21167;-71
2021/07/16 06:15:44;;;;;;;30.48;5.95;;;;;;;36.32;36.77;101206.04;1807397;78;21245;-72
2021/07/16 06:18:16;;;;;;;31.10;6.53;;;;;;;36.40;37.75;101208.47;1822964;78;21299;-84
2021/07/16 06:20:49;;;;;;;21.80;5.83;;;;;;;36.45;36.73;101208.64;1818508;76;21394;-81
2021/07/16 06:23:23;;;;;;;25.08;5.87;;;;;;;36.48;37.45;101207.81;1834565;78;21214;-78
2021/07/16 06:25:55;;;;;;;33.90;6.22;;;;;;;36.61;37.95;101207.51;1825446;78;21286;-70
2021/07/16 06:28:29;;;;;;;25.43;5.67;;;;;;;36.67;36.61;101205.84;1845568;76;21213;-71
2021/07/16 06:31:02;;;;;;;27.25;5.12;;;;;;;36.63;34.78;101207.92;1817062;78;21197;-70
2021/07/16 06:33:36;;;;;;;28.95;6.00;;;;;;;36.44;34.83;101207.84;1823387;78;21350;-72
2021/07/16 06:36:08;;;;;;;24.63;5.20;;;;;;;36.31;35.61;101204.40;1829533;78;21289;-69
2021/07/16 06:38:42;;;;;;;;;;;;;;;36.24;36.37;101207.34;1818704;78;21717;-73
2021/07/16 06:41:14;;;;;;;22.52;7.45;;;;;;;36.21;36.42;101205.27;1820592;78;20283;-77
2021/07/16 06:43:46;;;;;;;;;;;;;;;36.17;37.47;101205.30;1822740;78;21302;-69
2021/07/16 06:46:19;;;;;;;24.37;7.10;;;;;;;36.36;38.21;101198.17;1813227;78;20188;-70
2021/07/16 06:48:53;;;;;;;20.37;5.20;;;;;;;36.56;38.41;101194.92;1822637;77;21320;-80
2021/07/16 06:51:25;;;;;;;;;;;;;;;36.70;38.21;101194.22;1849866;76;21818;-78
2021/07/16 06:54:00;;;;;;;31.23;6.20;;;;;;;36.86;36.47;101194.52;1864625;76;20244;-73
2021/07/16 06:56:35;;;;;;;27.07;5.67;;;;;;;36.89;34.76;101195.09;1845607;76;21166;-71
2021/07/16 06:59:09;;;;;;;21.27;6.08;;;;;;;36.85;35.19;101191.39;1842476;78;21818;-80
2021/07/16 07:01:41;;;;;;;24.80;5.62;;;;;;;36.84;36.34;101193.30;1861133;76;21289;-70
2021/07/16 07:04:14;;;;;;;24.70;5.17;;;;;;;36.90;34.09;101188.05;1857906;76;21328;-69
2021/07/16 07:06:47;;;;;;;15.95;4.87;;;;;;;37.00;32.73;101191.48;1853251;76;21338;-69
2021/07/16 07:09:19;;;;;;;19.50;5.65;;;;;;;37.05;32.56;101187.29;1844461;77;21337;-69
2021/07/16 07:11:53;;;;;;;21.85;5.53;;;;;;;37.14;32.09;101190.56;1840233;78;21166;-69
2021/07/16 07:14:28;;;;;;;19.50;5.30;;;;;;;37.26;31.91;101187.94;1810616;78;21169;-69
2021/07/16 07:17:01;;;;;;;25.12;5.78;;;;;;;37.36;32.34;101184.72;1831820;78;21181;-70
2021/07/16 07:19:34;;;;;;;28.75;6.67;;;;;;;37.37;32.54;101187.20;1849365;76;21298;-69
2021/07/16 07:22:06;;;;;;;;;;;;;;;37.44;33.86;101189.18;1868118;76;21345;-68
2021/07/16 07:24:38;;;;;;;31.50;6.22;;;;;;;37.47;32.09;101184.83;1850374;76;20178;-69
2021/07/16 07:27:10;;;;;;;29.07;5.70;;;;;;;37.48;31.99;101183.56;1844875;76;21315;-69
2021/07/16 07:29:43;;;;;;;22.45;5.90;;;;;;;37.53;31.69;101186.03;1868168;76;21288;-68
2021/07/16 07:32:19;;;;;;;22.52;4.50;;;;;;;37.63;31.10;101180.70;1858620;76;21164;-69
2021/07/16 07:34:52;;;;;;;26.12;5.22;;;;;;;37.76;29.92;101178.88;1856906;76;21880;-71
2021/07/16 07:37:24;;;;;;;8.90;3.42;;;;;;;37.91;30.10;101179.52;1862353;76;21855;-70
2021/07/16 07:39:56;;;;;;;;;;;;;;;37.84;27.63;101183.36;1856191;76;21168;-70
2021/07/16 07:42:28;;;;;;;12.88;4.62;;;;;;;37.65;26.86;101176.77;1858440;76;20229;-78
2021/07/16 07:45:01;;;;;;;13.78;4.00;;;;;;;37.52;27.30;101187.23;1869206;76;21772;-76
2021/07/16 07:47:34;;;;;;;16.25;4.47;;;;;;;37.34;26.84;101186.59;1834195;76;21949;-77
2021/07/16 07:50:13;;;;;;;10.63;3.08;;;;;;;37.14;28.13;101184.77;1843946;77;21304;-80
2021/07/16 07:52:47;;;;;;;13.50;3.70;;;;;;;37.06;28.35;101178.79;1830597;77;21164;-69
2021/07/16 07:55:21;;;;;;;15.15;4.65;;;;;;;36.98;27.96;101189.65;1835667;77;21261;-88
2021/07/16 07:57:54;;;;;;;19.82;4.12;;;;;;;36.81;27.32;101189.17;1843842;77;21175;-78
2021/07/16 08:00:28;;;;;;;6.60;3.67;;;;;;;36.56;27.35;101185.62;1839959;77;21313;-85
2021/07/16 08:03:00;;;;;;;8.95;3.65;;;;;;;36.40;27.04;101187.37;1858789;77;21937;-70
2021/07/16 08:05:32;;;;;;;;;;;;;;;36.30;27.51;101186.83;1867405;77;21846;-69
2021/07/16 08:08:05;;;;;;;23.35;4.90;;;;;;;36.20;28.09;101179.86;1864204;77;20623;-68
2021/07/16 08:10:37;;;;;;;;;;;;;;;36.15;28.52;101190.40;1862554;77;21201;-76
2021/07/16 08:13:09;;;;;;;10.13;3.52;;;;;;;36.03;26.70;101179.30;1850522;77;20243;-69
2021/07/16 08:15:42;;;;;;;10.25;4.25;;;;;;;35.91;26.72;101187.01;1841519;77;21339;-71
2021/07/16 08:18:14;;;;;;;9.08;3.85;;;;;;;35.84;27.01;101191.39;1847191;77;21296;-69
2021/07/16 08:20:47;;;;;;;27.02;3.87;;;;;;;35.83;27.52;101191.19;1834949;77;21213;-70
2021/07/16 08:23:19;;;;;;;14.15;4.03;;;;;;;35.72;25.75;101176.55;1853672;77;21178;-69
2021/07/16 08:25:52;;;;;;;13.20;4.22;;;;;;;35.61;27.26;101181.51;1842703;77;21379;-69
2021/07/16 08:28:24;;;;;;;16.50;3.83;;;;;;;35.60;26.63;101179.25;1835006;77;21158;-68
2021/07/16 08:30:57;;;;;;;20.48;4.85;;;;;;;35.56;27.45;101168.95;1830396;78;21216;-68
2021/07/16 08:33:30;;;;;;;15.50;4.42;;;;;;;35.58;27.42;101175.97;1834888;77;21873;-77
2021/07/16 08:36:02;;;;;;;13.35;4.70;;;;;;;35.61;27.31;101174.28;1849914;77;21296;-68
2021/07/16 08:38:35;;;;;;;9.78;3.67;;;;;;;35.62;25.73;101178.20;1845454;77;21308;-71
2021/07/16 08:41:08;;;;;;;8.43;3.87;;;;;;;35.50;25.50;101169.98;1830480;78;21154;-81
2021/07/16 08:43:42;;;;;;;8.60;3.27;;;;;;;35.39;25.20;101172.72;1830508;77;21309;-69
2021/07/16 08:46:17;;;;;;;11.40;4.35;;;;;;;35.31;25.44;101167.56;1826889;77;21185;-69
2021/07/16 08:48:51;;;;;;;11.35;3.77;;;;;;;35.30;25.02;101170.87;1827943;77;21314;-78
2021/07/16 08:51:24;;;;;;;15.32;4.62;;;;;;;35.20;25.13;101169.62;1849613;77;21208;-69
2021/07/16 08:53:58;;;;;;;10.10;3.42;;;;;;;35.21;25.99;101166.13;1839061;77;21685;-70
2021/07/16 08:56:36;;;;;;;12.33;3.37;;;;;;;35.24;25.56;101166.75;1835878;77;21302;-70
2021/07/16 08:59:08;;;;;;;15.25;3.30;;;;;;;35.30;25.96;101165.92;1860724;77;21157;-68
2021/07/16 09:01:46;;;;;;;13.10;4.05;;;;;;;35.32;23.40;101166.32;1849963;77;21220;-69
2021/07/16 09:04:25;;;;;;;9.30;3.62;;;;;;;35.28;23.88;101168.41;1839080;77;21663;-72
2021/07/16 09:06:57;;;;;;;8.50;3.45;;;;;;;35.29;23.60;101161.99;1843643;77;21153;-67
2021/07/16 09:09:37;;;;;;;10.50;3.52;;;;;;;35.22;23.95;101162.86;1838836;77;21310;-69
2021/07/16 09:12:13;;;;;;;7.50;2.62;;;;;;;35.18;24.32;101164.88;1844862;77;21145;-77
2021/07/16 09:14:47;;;;;;;8.70;3.50;;;;;;;35.02;23.96;101171.70;1825898;77;21177;-73
2021/07/16 09:17:21;;;;;;;12.65;3.92;;;;;;;34.82;24.65;101167.61;1856608;77;21671;-70
2021/07/16 09:19:58;;;;;;;10.93;3.15;;;;;;;34.72;25.25;101166.95;1858669;77;21735;-67
2021/07/16 09:22:34;;;;;;;11.35;3.42;;;;;;;34.74;25.46;101156.44;1860597;77;21750;-67
2021/07/16 09:25:06;;;;;;;12.80;2.95;;;;;;;34.80;25.03;101156.26;1849612;77;21215;-77
2021/07/16 09:27:43;;;;;;;14.20;3.47;;;;;;;34.83;23.95;101151.92;1837482;77;21200;-69
2021/07/16 09:30:27;;;;;;;16.62;3.42;;;;;;;34.82;24.63;101161.02;1834915;77;21372;-73
2021/07/16 09:33:05;;;;;;;12.88;3.62;;;;;;;34.80;24.16;101152.77;1835605;77;21275;-68
2021/07/16 09:35:40;;;;;;;6.08;2.87;;;;;;;34.80;24.19;101151.92;1842758;77;21165;-79
2021/07/16 09:38:15;;;;;;;7.40;3.12;;;;;;;34.68;22.46;101145.92;1834716;77;21287;-78
2021/07/16 09:40:57;;;;;;;19.85;3.02;;;;;;;34.63;23.31;101144.89;1830026;77;21321;-72
2021/07/16 09:43:26;;;;;;;5.35;2.83;;;;;;;34.59;23.78;101141.81;1835194;77;21205;-67
2021/07/16 09:46:06;;;;;;;6.53;2.27;;;;;;;34.56;23.77;101146.95;1846233;77;21316;-78
2021/07/16 09:48:41;;;;;;;7.83;3.05;;;;;;;34.47;22.93;101145.09;1846225;77;21367;-67
2021/07/16 09:51:27;;;;;;;6.28;2.50;;;;;;;34.34;23.71;101136.00;1857581;77;21205;-70
2021/07/16 09:54:03;;;;;;;14.03;2.52;;;;;;;34.29;23.47;101137.04;1845919;77;21375;-69
2021/07/16 09:56:37;;;;;;;10.60;2.90;;;;;;;34.21;23.70;101137.60;1844296;77;21943;-70
2021/07/16 09:59:19;;;;;;;10.43;2.72;;;;;;;34.15;23.54;101132.03;1840643;77;21348;-71
2021/07/16 10:01:51;;;;;;;8.88;2.70;;;;;;;34.11;23.64;101134.07;1833211;77;21830;-70
2021/07/16 10:04:26;;;;;;;7.20;2.25;;;;;;;34.10;23.64;101130.17;1835182;77;21843;-72
2021/07/16 10:06:58;;;;;;;9.50;2.52;;;;;;;34.10;23.63;101132.42;1846252;77;21383;-71
2021/07/16 10:09:32;;;;;;;12.20;3.30;;;;;;;34.10;23.79;101136.75;1856090;77;21202;-71
2021/07/16 10:12:05;;;;;;;9.50;2.65;;;;;;;34.07;23.93;101134.70;1837360;76;21652;-71
2021/07/16 10:14:37;;;;;;;11.33;3.27;;;;;;;34.06;24.69;101135.10;1758175;80;21323;-70
2021/07/16 10:17:10;;;;;;;9.20;3.15;;;;;;;34.06;24.38;101134.50;1796170;79;21849;-69
2021/07/16 10:19:43;;;;;;;15.13;2.75;;;;;;;34.00;24.37;101130.97;1812201;77;21172;-70
2021/07/16 10:22:16;;;;;;;13.43;2.77;;;;;;;34.00;24.10;101135.30;1836177;77;21265;-71
2021/07/16 10:24:48;;;;;;;10.10;2.83;;;;;;;33.97;24.04;101133.24;1807756;78;21831;-71
2021/07/16 10:27:22;;;;;;;11.08;2.98;;;;;;;33.95;24.59;101135.69;1854392;77;21290;-68
2021/07/16 10:30:13;;;;;;;10.78;3.02;;;;;;;33.98;25.20;101132.81;1838841;76;21680;-69
2021/07/16 10:32:54;;;;;;;7.15;3.00;;;;;;;34.05;25.18;101133.45;1804227;78;21368;-70
2021/07/16 10:35:29;;;;;;;11.30;2.50;;;;;;;34.12;25.05;101127.09;1774992;80;21324;-70
2021/07/16 10:38:05;;;;;;;5.15;2.62;;;;;;;34.15;24.49;101134.11;1807135;79;21192;-68
2021/07/16 10:40:46;;;;;;;15.32;3.00;;;;;;;34.16;24.70;101123.58;1799137;79;21365;-69
2021/07/16 10:43:32;;;;;;;6.42;2.20;;;;;;;34.16;23.13;101132.23;1802506;79;21417;-69
2021/07/16 10:46:07;;;;;;;7.17;2.75;;;;;;;34.14;22.80;101126.66;1817239;76;21188;-69
2021/07/16 10:48:48;;;;;;;9.58;3.12;;;;;;;34.09;23.89;101123.57;1812066;76;21854;-67
2021/07/16 10:51:27;;;;;;;7.40;3.08;;;;;;;34.11;23.20;101121.09;1806447;78;21702;-68
2021/07/16 10:54:01;;;;;;;7.72;2.37;;;;;;;34.11;23.37;101126.86;1817407;76;21708;-68
2021/07/16 10:56:47;;;;;;;6.15;2.85;;;;;;;34.11;23.66;101119.65;1821911;78;21365;-66
2021/07/16 10:59:48;;;;;;;8.43;2.77;;;;;;;34.13;23.10;101117.80;1814552;78;21217;-68
2021/07/16 11:02:49;;;;;;;5.92;2.60;;;;;;;34.14;23.57;101107.91;1806655;79;21257;-71
2021/07/16 11:05:45;;;;;;;7.87;2.90;;;;;;;34.11;23.19;101106.66;1827250;78;21313;-68
2021/07/16 11:08:41;;;;;;;5.95;2.65;;;;;;;34.01;22.64;101100.28;1814837;78;21202;-70
2021/07/16 11:11:19;;;;;;;5.62;2.33;;;;;;;33.94;23.62;101100.27;1797570;77;21608;-68
2021/07/16 11:13:55;;;;;;;6.25;2.27;;;;;;;33.89;22.14;101096.94;1819903;78;21701;-84
2021/07/16 11:16:39;;;;;;;2.90;2.00;;;;;;;33.88;22.21;101099.02;1825707;77;21725;-69
2021/07/16 11:19:17;;;;;;;5.80;2.25;;;;;;;33.90;21.32;101092.82;1824819;78;21329;-69
2021/07/16 11:21:55;;;;;;;3.37;2.08;;;;;;;33.92;21.20;101095.51;1833608;78;21384;-69
2021/07/16 11:24:31;;;;;;;5.90;2.80;;;;;;;33.94;21.78;101093.66;1830885;78;21329;-69
2021/07/16 11:27:20;;;;;;;7.10;2.22;;;;;;;33.93;21.86;101087.06;1816857;78;21665;-69
2021/07/16 11:29:51;;;;;;;12.98;2.77;;;;;;;33.93;22.11;101088.50;1816015;78;21165;-69
2021/07/16 11:32:27;;;;;;;7.20;2.40;;;;;;;33.95;22.63;101087.50;1811288;78;21815;-82
2021/07/16 11:35:06;;;;;;;10.15;2.83;;;;;;;33.97;22.90;101084.21;1831301;77;21293;-73
2021/07/16 11:37:50;;;;;;;7.75;2.50;;;;;;;33.98;23.01;101086.66;1834649;77;21318;-69
2021/07/16 11:40:26;;;;;;;5.53;2.65;;;;;;;34.02;22.33;101086.06;1845323;77;21307;-66
2021/07/16 11:43:01;;;;;;;7.22;2.00;;;;;;;34.06;22.26;101083.18;1833912;77;21829;-69
2021/07/16 11:45:37;;;;;;;8.38;2.77;;;;;;;34.10;22.96;101084.02;1840869;76;21819;-69
2021/07/16 11:48:18;;;;;;;8.25;2.95;;;;;;;34.13;22.82;101076.81;1852161;76;21171;-71
2021/07/16 11:50:50;;;;;;;5.30;2.30;;;;;;;34.21;23.16;101074.77;1864630;76;21886;-70
2021/07/16 11:53:32;;;;;;;6.90;2.77;;;;;;;34.29;24.25;101079.33;1865157;76;21387;-74